Time;durP1;ratioP1;P1;durP2;ratioP2;P2;SDS_P1;SDS_P2;PMS_P1;PMS_P2;Temp;Humidity;BMP_temperature;BMP_pressure;BME280_temperature;BME280_humidity;BME280_pressure;Samples;Min_cycle;Max_cycle;Signal;HPM_P1;HPM_P2
2022/05/09 00:00:35;;;;;;;3.53;3.30;;;;;;;13.67;75.95;100062.81;5133996;27;20247;-66
2022/05/09 00:03:02;;;;;;;5.87;3.33;;;;;;;13.75;75.81;100066.16;5134315;27;20200;-65
2022/05/09 00:05:29;;;;;;;4.40;3.53;;;;;;;13.82;75.78;100072.34;5134546;27;20619;-65
2022/05/09 00:07:57;;;;;;;3.43;3.20;;;;;;;13.65;76.76;100068.41;5134471;27;20251;-65
2022/05/09 00:10:27;;;;;;;12.57;3.73;;;;;;;13.56;76.75;100074.91;5134160;27;20258;-65
2022/05/09 00:12:54;;;;;;;5.27;3.20;;;;;;;13.69;76.69;100074.94;5134738;27;20186;-65
2022/05/09 00:15:21;;;;;;;5.30;3.40;;;;;;;13.69;76.38;100066.13;5133731;27;20728;-65
2022/05/09 00:17:48;;;;;;;5.00;3.30;;;;;;;13.69;76.66;100072.28;5133753;27;20194;-66
2022/05/09 00:20:16;;;;;;;3.87;3.63;;;;;;;13.76;76.78;100083.81;5134220;27;20635;-66
2022/05/09 00:22:45;;;;;;;4.43;3.93;;;;;;;13.80;76.28;100070.91;5133638;27;20258;-65
2022/05/09 00:25:13;;;;;;;3.37;3.17;;;;;;;13.89;76.06;100080.34;5133940;27;20251;-66
2022/05/09 00:27:40;;;;;;;4.10;3.80;;;;;;;13.94;75.79;100075.22;5133840;27;20193;-66
2022/05/09 00:30:08;;;;;;;4.93;3.73;;;;;;;13.87;75.70;100069.88;5134339;27;20243;-66
2022/05/09 00:32:34;;;;;;;4.43;4.03;;;;;;;13.70;76.60;100076.63;5133824;27;20194;-66
2022/05/09 00:35:01;;;;;;;4.47;4.00;;;;;;;13.52;77.45;100079.00;5133673;27;20278;-66
2022/05/09 00:37:28;;;;;;;5.23;4.70;;;;;;;13.55;77.82;100081.28;5133361;27;20651;-66
2022/05/09 00:39:54;;;;;;;5.67;3.87;;;;;;;13.58;77.91;100080.06;5133676;27;20262;-66
2022/05/09 00:42:23;;;;;;;5.73;4.13;;;;;;;13.59;77.53;100082.53;5133683;27;20193;-66
2022/05/09 00:44:50;;;;;;;4.83;4.33;;;;;;;13.60;77.51;100084.16;5134386;27;20190;-66
2022/05/09 00:47:17;;;;;;;7.27;3.80;;;;;;;13.64;77.42;100090.75;5133661;27;20198;-66
2022/05/09 00:49:48;;;;;;;3.70;3.50;;;;;;;13.69;77.25;100077.63;5134363;27;20190;-65
2022/05/09 00:52:21;;;;;;;6.63;3.53;;;;;;;13.73;77.13;100081.53;5133232;27;20193;-66
2022/05/09 00:54:52;;;;;;;6.20;3.70;;;;;;;13.78;77.29;100081.78;5132966;27;20208;-66
2022/05/09 00:57:25;;;;;;;7.20;3.57;;;;;;;13.76;77.17;100078.47;5133117;27;20178;-65
2022/05/09 00:59:56;;;;;;;4.60;3.67;;;;;;;13.71;77.15;100075.59;5133077;27;20238;-65
2022/05/09 01:02:24;;;;;;;6.57;3.43;;;;;;;13.70;77.45;100073.94;5133666;27;20182;-65
2022/05/09 01:04:54;;;;;;;4.97;4.00;;;;;;;13.51;77.95;100074.69;5133287;27;20274;-66
2022/05/09 01:07:21;;;;;;;4.50;3.90;;;;;;;13.62;77.95;100075.97;5113614;28;20190;-65
2022/05/09 01:09:48;;;;;;;4.20;3.80;;;;;;;13.62;77.75;100071.47;5112675;28;20187;-65
2022/05/09 01:12:19;;;;;;;4.40;3.90;;;;;;;13.59;78.13;100065.69;5111963;28;20187;-65
2022/05/09 01:14:47;;;;;;;5.73;4.00;;;;;;;13.59;78.00;100077.19;5112155;28;20791;-65
2022/05/09 01:17:16;;;;;;;4.03;3.80;;;;;;;13.25;79.36;100069.28;5113420;28;20267;-65
2022/05/09 01:19:45;;;;;;;5.47;4.20;;;;;;;13.34;79.47;100068.09;5112114;28;20195;-65
2022/05/09 01:22:23;;;;;;;7.67;4.10;;;;;;;13.29;79.10;100073.19;5112824;28;20202;-65
2022/05/09 01:24:51;;;;;;;4.47;4.07;;;;;;;13.33;79.27;100065.59;5112799;28;20182;-65
2022/05/09 01:27:18;;;;;;;5.17;4.67;;;;;;;13.35;79.73;100074.25;5112196;28;20190;-65
2022/05/09 01:29:52;;;;;;;5.80;4.10;;;;;;;13.39;79.13;100070.16;5112171;28;20190;-65
2022/05/09 01:32:26;;;;;;;5.03;4.27;;;;;;;13.43;79.13;100076.75;5113140;28;20208;-65
2022/05/09 01:34:59;;;;;;;5.50;4.17;;;;;;;13.42;79.10;100075.91;5112707;28;20214;-65
2022/05/09 01:37:30;;;;;;;4.20;3.90;;;;;;;13.45;78.94;100070.19;5112123;28;20644;-65
2022/05/09 01:39:56;;;;;;;12.27;4.50;;;;;;;13.46;79.30;100071.81;5111997;28;20186;-65
2022/05/09 01:42:23;;;;;;;7.30;4.97;;;;;;;13.52;78.68;100079.00;5111933;28;20222;-65
2022/05/09 01:44:50;;;;;;;7.00;4.70;;;;;;;13.48;78.96;100080.44;5112047;28;20233;-65
2022/05/09 01:50:01;;;;;;;10.30;4.50;;;;;;;13.50;78.78;100078.41;5112151;28;20193;-65
2022/05/09 01:52:29;;;;;;;7.27;5.00;;;;;;;13.50;78.61;100073.06;5112307;28;20195;-64
2022/05/09 01:54:55;;;;;;;4.60;4.40;;;;;;;13.42;78.07;100075.91;5111844;28;20647;-64
2022/05/09 01:57:22;;;;;;;6.63;5.00;;;;;;;13.37;78.73;100078.38;5111976;28;20663;-65
2022/05/09 01:59:49;;;;;;;6.67;5.27;;;;;;;13.42;78.91;100069.75;5112733;28;20255;-64
2022/05/09 02:02:19;;;;;;;6.63;5.03;;;;;;;13.39;78.55;100075.50;5112246;28;20191;-65
2022/05/09 02:04:46;;;;;;;5.20;4.70;;;;;;;13.37;79.05;100066.84;5112480;28;20291;-65
2022/05/09 02:07:15;;;;;;;6.33;5.20;;;;;;;13.30;78.61;100066.84;5114315;28;20194;-65
2022/05/09 02:09:45;;;;;;;6.70;4.90;;;;;;;13.29;78.48;100067.88;5115718;27;20251;-65
2022/05/09 02:12:14;;;;;;;6.07;5.30;;;;;;;13.28;79.01;100066.19;5115651;28;20199;-65
2022/05/09 02:14:41;;;;;;;5.33;4.93;;;;;;;13.24;78.85;100078.28;5115521;28;20765;-64
2022/05/09 02:17:09;;;;;;;5.80;5.30;;;;;;;13.24;79.17;100072.94;5116179;28;20194;-65
2022/05/09 02:19:36;;;;;;;6.60;5.10;;;;;;;13.25;79.59;100079.13;5115505;28;20195;-65
2022/05/09 02:22:03;;;;;;;6.57;5.50;;;;;;;13.24;79.28;100083.63;5116616;28;20191;-64
2022/05/09 02:24:30;;;;;;;6.23;5.60;;;;;;;13.25;79.68;100087.13;5116301;28;20203;-64
2022/05/09 02:26:59;;;;;;;6.07;5.53;;;;;;;13.29;79.51;100085.69;5115877;28;20198;-64
2022/05/09 02:29:26;;;;;;;6.20;5.67;;;;;;;13.29;79.06;100091.88;5115308;28;20672;-64
2022/05/09 02:31:54;;;;;;;8.80;5.50;;;;;;;13.27;79.02;100088.56;5116387;28;20218;-65
2022/05/09 02:34:21;;;;;;;10.20;5.83;;;;;;;13.27;79.35;100083.22;5115410;28;20219;-64
2022/05/09 02:36:48;;;;;;;10.87;5.63;;;;;;;13.28;79.51;100090.22;5116055;28;20194;-64
2022/05/09 02:39:15;;;;;;;6.03;5.47;;;;;;;13.21;80.05;100078.69;5115462;28;20191;-64
2022/05/09 02:41:41;;;;;;;10.90;6.03;;;;;;;13.20;80.38;100087.72;5115456;28;20187;-64
2022/05/09 02:44:10;;;;;;;6.07;5.47;;;;;;;13.13;80.15;100086.88;5114967;28;20671;-65
2022/05/09 02:46:37;;;;;;;6.57;5.90;;;;;;;12.93;80.26;100083.25;5114823;28;20195;-64
2022/05/09 02:49:03;;;;;;;9.27;5.30;;;;;;;12.97;81.05;100087.19;5115391;28;20231;-64
2022/05/09 02:51:30;;;;;;;9.07;5.57;;;;;;;12.88;80.60;100083.00;5114864;28;20195;-65
2022/05/09 02:53:58;;;;;;;6.93;6.03;;;;;;;12.82;80.65;100091.78;5115168;28;20251;-64
2022/05/09 02:56:25;;;;;;;8.73;6.00;;;;;;;12.78;80.50;100092.38;5114701;28;20219;-64
2022/05/09 02:58:52;;;;;;;6.17;5.63;;;;;;;12.67;80.91;100100.91;5115228;28;20198;-65
2022/05/09 03:01:20;;;;;;;6.87;5.77;;;;;;;12.59;80.66;100103.72;5114719;28;20240;-65
2022/05/09 03:06:30;;;;;;;5.27;4.77;;;;;;;12.56;78.12;100104.94;5114989;28;20201;-65
2022/05/09 03:08:57;;;;;;;7.90;5.07;;;;;;;12.43;77.49;100099.50;5114525;28;20251;-65
2022/05/09 03:11:24;;;;;;;5.10;4.70;;;;;;;12.42;76.90;100105.84;5114492;28;20590;-65
2022/05/09 03:13:51;;;;;;;5.73;5.33;;;;;;;12.35;76.48;100112.97;5114729;28;20745;-65
2022/05/09 03:16:17;;;;;;;5.90;5.33;;;;;;;12.39;75.94;100119.56;5114342;28;20295;-65
2022/05/09 03:18:45;;;;;;;5.43;4.97;;;;;;;12.42;75.50;100118.34;5113423;28;20664;-65
2022/05/09 03:21:12;;;;;;;8.77;5.67;;;;;;;12.41;75.08;100122.84;5114560;28;20259;-65
2022/05/09 03:23:39;;;;;;;11.90;6.13;;;;;;;12.34;75.18;100123.81;5114771;28;20318;-65
2022/05/09 03:26:05;;;;;;;6.80;6.00;;;;;;;12.33;75.55;100122.97;5114463;28;20243;-65
2022/05/09 03:28:32;;;;;;;9.23;5.30;;;;;;;12.29;76.09;100118.25;5114180;28;20199;-65
2022/05/09 03:31:00;;;;;;;7.37;5.80;;;;;;;12.27;76.16;100121.09;5114028;28;20230;-66
2022/05/09 03:33:27;;;;;;;7.43;5.67;;;;;;;12.32;76.55;100128.50;5114880;28;20191;-65
2022/05/09 03:35:57;;;;;;;14.37;7.00;;;;;;;12.29;76.42;100129.69;5114155;28;20251;-65
2022/05/09 03:38:24;;;;;;;11.53;5.93;;;;;;;12.32;75.74;100129.31;5113662;28;20192;-65
2022/05/09 03:40:51;;;;;;;10.93;6.30;;;;;;;12.29;75.77;100135.03;5113624;28;20195;-65
2022/05/09 03:43:18;;;;;;;9.23;5.67;;;;;;;12.32;75.87;100128.50;5113889;28;20256;-65
2022/05/09 03:45:47;;;;;;;11.97;5.90;;;;;;;12.37;75.45;100132.22;5113629;28;20193;-65
2022/05/09 03:48:14;;;;;;;13.37;7.57;;;;;;;12.35;74.63;100134.28;5114076;28;20230;-65
2022/05/09 03:50:41;;;;;;;8.07;6.33;;;;;;;12.36;74.78;100137.75;5113767;28;20190;-65
2022/05/09 03:53:09;;;;;;;7.37;6.20;;;;;;;12.44;74.46;100134.94;5113584;28;20197;-65
2022/05/09 03:55:35;;;;;;;8.53;5.80;;;;;;;12.80;74.63;100133.81;5113881;28;20596;-65
2022/05/09 03:58:03;;;;;;;11.33;6.20;;;;;;;13.32;71.93;100139.47;5113641;28;20194;-65
2022/05/09 04:00:33;;;;;;;9.53;6.83;;;;;;;13.77;70.31;100141.53;5113373;28;20248;-65
2022/05/09 04:03:00;;;;;;;10.43;6.97;;;;;;;14.45;69.21;100149.28;5113797;28;20251;-65
2022/05/09 04:05:30;;;;;;;7.33;6.00;;;;;;;15.03;66.83;100148.44;5113528;28;20667;-65
2022/05/09 04:07:58;;;;;;;7.07;4.90;;;;;;;15.66;66.43;100150.34;5114066;28;20189;-69
2022/05/09 04:10:28;;;;;;;6.63;3.77;;;;;;;16.90;65.80;100148.72;5113376;28;20243;-69
2022/05/09 04:12:55;;;;;;;12.30;5.87;;;;;;;18.10;60.54;100163.88;5114253;28;20248;-68
2022/05/09 04:18:07;;;;;;;15.23;6.80;;;;;;;19.89;49.47;100182.69;5113913;28;20599;-66
2022/05/09 04:20:34;;;;;;;15.47;6.67;;;;;;;20.30;47.41;100184.34;5113524;28;20190;-66
2022/05/09 04:23:01;;;;;;;14.50;6.87;;;;;;;20.45;46.98;100177.34;5113065;28;20633;-67
2022/05/09 04:25:31;;;;;;;17.17;6.33;;;;;;;20.90;46.72;100169.16;5113207;28;20583;-68
2022/05/09 04:27:58;;;;;;;14.07;6.33;;;;;;;21.16;45.94;100179.34;5112904;28;20199;-66
2022/05/09 04:30:26;;;;;;;19.17;6.43;;;;;;;21.30;45.52;100164.41;5113174;28;20202;-66
2022/05/09 04:32:52;;;;;;;9.07;6.53;;;;;;;21.79;44.03;100168.88;5112939;28;20258;-67
2022/05/09 04:35:20;;;;;;;9.90;6.60;;;;;;;21.87;43.51;100170.31;5113668;28;20275;-67
2022/05/09 04:37:47;;;;;;;14.57;6.10;;;;;;;21.96;43.28;100172.31;5113207;28;20218;-68
2022/05/09 04:40:15;;;;;;;7.97;6.27;;;;;;;22.36;43.05;100164.63;5112808;28;20671;-70
2022/05/09 04:42:44;;;;;;;6.13;5.50;;;;;;;22.37;41.77;100177.09;5113216;28;20575;-68
2022/05/09 04:45:12;;;;;;;10.23;5.70;;;;;;;22.77;41.80;100166.66;5112618;28;20230;-68
2022/05/09 04:47:39;;;;;;;11.03;7.13;;;;;;;22.75;40.32;100176.91;5112509;28;20229;-67
2022/05/09 04:50:08;;;;;;;8.13;5.80;;;;;;;22.82;41.13;100169.41;5112567;28;20182;-66
2022/05/09 04:52:35;;;;;;;16.03;5.83;;;;;;;22.79;40.64;100167.19;5112368;28;20186;-65
2022/05/09 04:55:01;;;;;;;21.20;5.50;;;;;;;22.88;43.17;100160.25;5112417;28;20218;-64
2022/05/09 04:57:28;;;;;;;16.07;6.10;;;;;;;23.11;40.60;100162.56;5112586;28;20195;-64
2022/05/09 04:59:56;;;;;;;12.30;6.23;;;;;;;23.20;39.73;100168.34;5112474;28;20198;-66
2022/05/09 05:02:23;;;;;;;30.77;6.33;;;;;;;23.52;39.64;100167.19;5112118;28;20633;-64
2022/05/09 05:04:50;;;;;;;8.40;5.57;;;;;;;24.45;38.86;100169.69;5112530;28;20244;-64
2022/05/09 05:07:16;;;;;;;19.70;6.33;;;;;;;24.99;35.87;100170.81;5112812;28;20192;-66
2022/05/09 05:09:43;;;;;;;11.33;5.87;;;;;;;25.17;35.13;100169.44;5112244;28;20250;-67
2022/05/09 05:12:11;;;;;;;13.37;5.10;;;;;;;25.25;36.25;100174.31;5112682;28;20245;-66
2022/05/09 05:14:37;;;;;;;15.70;6.17;;;;;;;25.86;34.99;100164.06;5112577;28;20254;-66
2022/05/09 05:17:06;;;;;;;10.83;6.50;;;;;;;25.37;34.31;100165.88;5111775;28;20274;-76
2022/05/09 05:19:36;;;;;;;8.47;5.60;;;;;;;25.69;35.00;100153.53;5111822;28;20194;-67
2022/05/09 05:22:05;;;;;;;37.40;6.90;;;;;;;26.03;33.84;100167.28;5115749;27;20198;-69
2022/05/09 05:24:33;;;;;;;6.80;5.53;;;;;;;26.24;33.06;100163.34;5123348;28;20849;-66
2022/05/09 05:27:01;;;;;;;16.63;6.00;;;;;;;26.75;33.03;100160.00;5118849;27;20259;-73
2022/05/09 05:29:28;;;;;;;12.60;6.40;;;;;;;27.23;31.75;100169.16;5131913;27;20687;-62
2022/05/09 05:31:55;;;;;;;7.57;6.40;;;;;;;27.25;31.39;100162.31;5151230;27;20704;-63
2022/05/09 05:34:23;;;;;;;12.47;6.63;;;;;;;27.19;31.28;100168.06;5148047;27;20268;-63
2022/05/09 05:36:50;;;;;;;14.37;5.73;;;;;;;26.72;32.43;100160.59;5120134;28;20586;-61
2022/05/09 05:39:17;;;;;;;15.37;6.73;;;;;;;26.94;33.00;100162.84;5132858;27;20258;-65
2022/05/09 05:41:44;;;;;;;12.60;5.13;;;;;;;27.15;32.64;100161.56;5133882;27;20658;-62
2022/05/09 05:44:12;;;;;;;5.13;4.63;;;;;;;27.47;31.79;100153.59;5136518;27;20211;-61
2022/05/09 05:46:40;;;;;;;8.63;4.77;;;;;;;27.77;31.46;100158.69;5136482;27;20193;-61
2022/05/09 05:49:07;;;;;;;8.50;5.37;;;;;;;28.28;30.87;100163.22;5136847;27;20683;-63
2022/05/09 05:51:36;;;;;;;6.77;5.43;;;;;;;28.09;29.98;100156.13;5132991;27;20613;-62
2022/05/09 05:54:02;;;;;;;9.80;5.20;;;;;;;28.47;30.67;100157.78;5125898;27;20281;-64
2022/05/09 05:56:29;;;;;;;8.93;5.90;;;;;;;28.44;29.61;100174.75;5135950;27;20264;-62
2022/05/09 05:58:56;;;;;;;10.97;6.07;;;;;;;27.93;30.31;100171.09;5136781;27;20194;-62
2022/05/09 06:01:23;;;;;;;6.80;6.13;;;;;;;27.21;32.05;100168.63;5136731;27;20247;-62
2022/05/09 06:03:50;;;;;;;8.33;5.67;;;;;;;26.93;32.38;100163.94;5136717;27;20190;-61
2022/05/09 06:06:17;;;;;;;10.90;6.27;;;;;;;26.85;32.63;100167.28;5136615;27;20254;-61
2022/05/09 06:08:46;;;;;;;9.33;5.87;;;;;;;26.91;32.47;100171.59;5136203;27;20663;-62
2022/05/09 06:11:13;;;;;;;7.37;5.70;;;;;;;27.08;32.44;100161.09;5136430;27;20196;-61
2022/05/09 06:13:40;;;;;;;15.30;5.90;;;;;;;27.60;31.68;100164.63;5137078;27;20533;-62
2022/05/09 06:16:06;;;;;;;9.40;6.17;;;;;;;27.54;31.09;100173.16;5136390;27;20221;-61
2022/05/09 06:18:33;;;;;;;6.23;5.70;;;;;;;27.28;31.92;100171.81;5143836;27;20273;-62
2022/05/09 06:21:00;;;;;;;7.07;4.87;;;;;;;27.18;31.71;100169.97;5141557;27;20802;-61
2022/05/09 06:23:27;;;;;;;12.33;5.83;;;;;;;27.49;31.38;100173.22;5152680;27;20246;-61
2022/05/09 06:25:56;;;;;;;13.73;4.97;;;;;;;27.62;31.02;100167.91;5146207;27;20750;-61
2022/05/09 06:28:23;;;;;;;9.03;5.27;;;;;;;27.57;30.11;100165.19;5143355;27;20278;-62
2022/05/09 06:30:51;;;;;;;5.30;4.80;;;;;;;27.56;29.62;100162.78;5151161;27;20559;-62
2022/05/09 06:33:23;;;;;;;23.63;6.43;;;;;;;27.69;30.77;100168.34;5156902;27;20317;-62
2022/05/09 06:35:51;;;;;;;9.20;5.17;;;;;;;27.94;30.57;100164.50;5157331;27;20215;-62
2022/05/09 06:38:19;;;;;;;7.53;5.77;;;;;;;28.58;29.98;100170.19;5156703;27;20276;-62
2022/05/09 06:40:46;;;;;;;5.50;5.10;;;;;;;28.84;29.47;100172.19;5156310;27;20280;-61
2022/05/09 06:43:14;;;;;;;6.27;5.77;;;;;;;29.10;28.92;100169.84;5156712;27;20568;-62
2022/05/09 06:45:42;;;;;;;13.13;5.93;;;;;;;29.11;28.82;100168.72;5156555;27;20193;-60
2022/05/09 06:48:10;;;;;;;9.10;6.43;;;;;;;28.74;29.27;100152.38;5157037;27;20273;-61
2022/05/09 06:50:38;;;;;;;9.37;6.10;;;;;;;28.39;30.24;100161.97;5156074;27;20656;-61
2022/05/09 06:53:05;;;;;;;11.97;6.53;;;;;;;28.36;30.20;100159.81;5154823;27;20193;-61
2022/05/09 06:55:31;;;;;;;7.13;6.03;;;;;;;27.75;31.03;100160.91;5137856;27;20191;-61
2022/05/09 06:57:58;;;;;;;10.67;6.30;;;;;;;27.61;31.42;100160.00;5135355;27;20225;-62
2022/05/09 07:00:27;;;;;;;6.00;5.30;;;;;;;27.71;32.89;100157.94;5135464;27;20186;-63
2022/05/09 07:02:54;;;;;;;22.27;6.23;;;;;;;28.05;31.47;100155.09;5135507;27;20696;-61
2022/05/09 07:05:22;;;;;;;13.43;5.70;;;;;;;28.37;31.60;100152.41;5146221;27;20615;-62
2022/05/09 07:07:49;;;;;;;12.27;5.40;;;;;;;28.84;30.44;100160.44;5156068;27;20193;-62
2022/05/09 07:10:18;;;;;;;7.27;4.90;;;;;;;29.16;29.08;100158.50;5156153;27;20246;-63
2022/05/09 07:12:47;;;;;;;7.57;4.77;;;;;;;28.93;29.69;100151.25;5155999;27;20662;-63
2022/05/09 07:15:15;;;;;;;7.10;5.43;;;;;;;28.76;29.45;100155.66;5155952;27;20193;-64
2022/05/09 07:17:43;;;;;;;14.97;4.80;;;;;;;28.07;29.54;100144.66;5155266;27;20646;-65
2022/05/09 07:20:11;;;;;;;7.00;3.80;;;;;;;27.87;30.06;100144.94;5133204;27;20190;-65
2022/05/09 07:22:38;;;;;;;9.43;5.50;;;;;;;27.59;30.89;100146.63;5116787;27;20190;-64
2022/05/09 07:25:05;;;;;;;5.67;4.67;;;;;;;27.25;31.99;100134.19;5119433;27;20191;-65
2022/05/09 07:27:32;;;;;;;4.70;4.30;;;;;;;27.02;32.45;100134.94;5128643;27;20198;-65
2022/05/09 07:29:58;;;;;;;9.17;4.50;;;;;;;26.95;32.33;100135.28;5112846;28;20195;-66
2022/05/09 07:32:25;;;;;;;10.53;5.03;;;;;;;27.18;31.74;100139.13;5112140;28;20226;-65
2022/05/09 07:34:53;;;;;;;12.07;4.80;;;;;;;27.24;32.08;100132.56;5111831;28;20190;-66
2022/05/09 07:37:21;;;;;;;9.17;4.50;;;;;;;26.99;31.81;100130.09;5111928;28;20311;-66
2022/05/09 07:39:48;;;;;;;23.83;5.40;;;;;;;26.99;32.05;100119.97;5111645;28;20649;-65
2022/05/09 07:42:14;;;;;;;4.50;4.10;;;;;;;26.91;32.01;100133.44;5111947;28;20187;-66
2022/05/09 07:44:41;;;;;;;4.90;4.00;;;;;;;26.49;32.16;100130.47;5112988;28;20212;-65
2022/05/09 07:47:09;;;;;;;5.17;3.87;;;;;;;26.25;32.90;100132.31;5113701;28;20195;-65
2022/05/09 07:49:36;;;;;;;3.53;3.33;;;;;;;26.55;31.98;100126.63;5114650;28;20230;-66
2022/05/09 07:52:05;;;;;;;11.53;4.50;;;;;;;26.86;31.34;100131.56;5113577;28;20244;-66
2022/05/09 07:54:32;;;;;;;9.77;3.80;;;;;;;26.99;30.70;100128.16;5113849;27;20663;-66
2022/05/09 07:56:59;;;;;;;4.73;3.43;;;;;;;27.03;30.65;100126.47;5134004;27;20238;-65
2022/05/09 07:59:26;;;;;;;3.77;3.37;;;;;;;27.16;30.75;100127.72;5134439;27;20186;-65
2022/05/09 08:01:53;;;;;;;3.00;2.80;;;;;;;27.25;31.04;100128.75;5133849;27;20242;-65
2022/05/09 08:04:20;;;;;;;3.93;3.17;;;;;;;27.07;31.32;100121.28;5136447;27;20202;-65
2022/05/09 08:06:47;;;;;;;8.50;3.07;;;;;;;27.11;31.27;100125.84;5154480;27;20194;-65
2022/05/09 08:09:15;;;;;;;3.63;3.20;;;;;;;26.75;31.60;100130.00;5154567;27;20734;-65
2022/05/09 08:11:44;;;;;;;9.17;3.77;;;;;;;26.94;31.23;100130.94;5141501;27;20251;-66
2022/05/09 08:14:11;;;;;;;6.47;4.33;;;;;;;27.22;30.51;100123.84;5133732;27;20611;-65
2022/05/09 08:16:38;;;;;;;4.83;3.90;;;;;;;27.44;30.65;100119.50;5133666;27;20218;-64
2022/05/09 08:19:05;;;;;;;5.70;4.13;;;;;;;27.61;30.42;100133.47;5134054;27;20262;-64
2022/05/09 08:21:33;;;;;;;5.30;4.07;;;;;;;27.78;29.81;100130.28;5133615;27;20295;-66
2022/05/09 08:24:00;;;;;;;8.03;4.40;;;;;;;28.07;29.71;100126.38;5134500;27;20202;-65
2022/05/09 08:26:28;;;;;;;10.53;4.87;;;;;;;28.19;29.06;100134.09;5133747;27;20198;-65
2022/05/09 08:28:56;;;;;;;4.73;3.83;;;;;;;28.23;29.08;100125.03;5127418;27;20247;-65
2022/05/09 08:31:23;;;;;;;5.40;4.53;;;;;;;28.39;28.73;100123.69;5122124;27;20200;-64
2022/05/09 08:33:52;;;;;;;11.93;4.97;;;;;;;27.94;29.62;100126.28;5126992;27;20192;-64
2022/05/09 08:39:01;;;;;;;6.00;4.40;;;;;;;27.75;29.61;100114.47;5113078;28;20640;-64
2022/05/09 08:41:36;;;;;;;4.70;4.17;;;;;;;28.02;29.16;100129.13;5112757;28;20251;-65
2022/05/09 08:44:15;;;;;;;12.97;4.87;;;;;;;28.13;28.90;100127.91;5112943;28;20193;-63
2022/05/09 08:46:52;;;;;;;7.10;4.90;;;;;;;28.04;29.25;100126.94;5112632;28;20671;-65
2022/05/09 08:49:35;;;;;;;16.03;7.47;;;;;;;27.93;29.82;100127.38;5113473;28;20812;-65
2022/05/09 08:52:10;;;;;;;8.37;6.03;;;;;;;28.16;29.21;100121.03;5112878;28;20214;-64
2022/05/09 08:54:39;;;;;;;7.90;5.00;;;;;;;28.16;29.11;100121.03;5112712;28;20190;-65
2022/05/09 08:57:12;;;;;;;8.60;4.97;;;;;;;28.17;28.76;100118.00;5112661;28;20269;-64
2022/05/09 08:59:46;;;;;;;7.50;4.60;;;;;;;28.00;29.34;100117.72;5112926;28;20183;-64
2022/05/09 09:02:18;;;;;;;8.47;5.33;;;;;;;27.61;30.18;100116.31;5112418;28;20186;-63
2022/05/09 09:04:51;;;;;;;7.17;5.10;;;;;;;27.94;30.32;100115.34;5131512;27;20238;-64
2022/05/09 09:07:36;;;;;;;9.73;5.40;;;;;;;28.28;30.09;100121.41;5154447;27;20192;-64
2022/05/09 09:10:11;;;;;;;13.70;5.87;;;;;;;28.47;30.23;100114.03;5154409;27;20189;-63
2022/05/09 09:12:50;;;;;;;9.40;5.07;;;;;;;28.42;30.44;100111.38;5154358;27;20185;-64
2022/05/09 09:15:26;;;;;;;12.90;6.17;;;;;;;28.26;30.70;100101.75;5153588;27;20562;-64
2022/05/09 09:18:04;;;;;;;9.80;5.50;;;;;;;27.99;31.23;100107.06;5153877;27;20222;-64
2022/05/09 09:20:37;;;;;;;11.93;5.90;;;;;;;27.96;31.13;100107.66;5149883;27;20246;-64
2022/05/09 09:23:17;;;;;;;7.33;5.23;;;;;;;27.80;30.91;100106.22;5132746;27;20196;-63
2022/05/09 09:25:58;;;;;;;9.57;5.17;;;;;;;28.00;30.68;100104.06;5133192;27;20184;-64
2022/05/09 09:28:35;;;;;;;12.40;6.27;;;;;;;28.08;30.81;100094.38;5121541;27;20186;-64
2022/05/09 09:31:06;;;;;;;10.33;5.33;;;;;;;27.80;31.56;100098.84;5112562;28;20250;-64
2022/05/09 09:33:36;;;;;;;9.77;5.10;;;;;;;28.01;30.69;100102.16;5112107;28;20181;-64
2022/05/09 09:36:08;;;;;;;12.43;5.33;;;;;;;28.13;30.93;100092.38;5112389;28;20194;-64
2022/05/09 09:38:40;;;;;;;9.60;4.93;;;;;;;28.09;31.17;100101.47;5112055;28;20698;-64
2022/05/09 09:41:23;;;;;;;12.13;4.87;;;;;;;27.89;31.93;100102.56;5112368;28;20187;-64
2022/05/09 09:43:59;;;;;;;8.53;5.07;;;;;;;27.65;31.97;100096.31;5112299;28;20218;-63
2022/05/09 09:46:25;;;;;;;4.87;4.37;;;;;;;27.72;32.17;100085.84;5112689;28;20201;-64
2022/05/09 09:49:05;;;;;;;9.43;5.17;;;;;;;26.97;32.96;100080.44;5112320;28;20219;-63
2022/05/09 09:51:32;;;;;;;7.97;4.53;;;;;;;27.07;33.43;100091.28;5112397;28;20220;-64
2022/05/09 09:54:02;;;;;;;6.43;4.87;;;;;;;27.30;32.77;100082.28;5111786;28;20202;-64
2022/05/09 09:56:32;;;;;;;12.77;4.83;;;;;;;27.36;32.21;100086.59;5111623;28;20278;-63
2022/05/09 09:59:18;;;;;;;4.77;4.20;;;;;;;27.09;32.30;100081.69;5111870;28;20631;-63
2022/05/09 10:02:02;;;;;;;13.63;4.90;;;;;;;27.27;32.73;100085.63;5111858;28;20656;-63
2022/05/09 10:04:30;;;;;;;7.80;4.17;;;;;;;27.18;32.19;100076.41;5125926;27;20195;-63
2022/05/09 10:06:59;;;;;;;12.33;4.53;;;;;;;27.24;32.52;100080.72;5152935;27;20193;-63
2022/05/09 10:09:28;;;;;;;6.67;4.30;;;;;;;27.22;31.89;100078.28;5153517;27;20189;-63
2022/05/09 10:11:54;;;;;;;9.03;4.40;;;;;;;27.22;32.14;100085.66;5151698;27;20195;-64
2022/05/09 10:14:37;;;;;;;6.00;3.60;;;;;;;27.30;32.04;100076.81;5151496;27;20272;-64
2022/05/09 10:17:16;;;;;;;7.73;4.30;;;;;;;27.45;32.40;100071.19;5150435;27;20270;-64
2022/05/09 10:19:43;;;;;;;5.33;3.60;;;;;;;27.41;32.28;100078.34;5150264;27;20573;-63
2022/05/09 10:24:58;;;;;;;6.17;3.93;;;;;;;27.36;32.38;100067.50;5131891;28;20227;-63
2022/05/09 10:27:31;;;;;;;6.20;4.30;;;;;;;26.97;33.07;100069.53;5117695;27;20198;-64
2022/05/09 10:30:02;;;;;;;7.53;4.17;;;;;;;27.06;32.71;100070.53;5135483;27;20673;-65
2022/05/09 10:32:36;;;;;;;5.07;4.03;;;;;;;27.15;32.67;100069.59;5136034;27;20221;-65
2022/05/09 10:35:08;;;;;;;9.30;3.97;;;;;;;27.30;32.71;100061.28;5135605;27;20625;-65
2022/05/09 10:37:45;;;;;;;4.33;4.03;;;;;;;26.71;34.43;100066.25;5135672;27;20245;-62
2022/05/09 10:40:19;;;;;;;8.60;4.73;;;;;;;26.20;34.55;100056.88;5135822;27;20186;-61
2022/05/09 10:42:49;;;;;;;4.80;4.30;;;;;;;26.16;34.70;100055.81;5136021;27;20189;-63
2022/05/09 10:45:21;;;;;;;8.93;4.67;;;;;;;26.26;34.58;100054.91;5135207;27;20262;-64
2022/05/09 10:47:56;;;;;;;4.90;4.10;;;;;;;26.44;34.08;100056.94;5136198;27;20221;-64
2022/05/09 10:50:28;;;;;;;4.13;3.83;;;;;;;26.64;33.33;100056.78;5135750;27;20610;-64
2022/05/09 10:53:06;;;;;;;3.73;3.43;;;;;;;26.57;32.45;100053.53;5135727;27;20542;-64
2022/05/09 10:55:39;;;;;;;6.15;3.80;;;;;;;26.73;32.78;100050.44;5135116;27;20433;-67
2022/05/09 10:58:11;;;;;;;5.63;3.57;;;;;;;26.98;31.34;100049.34;5135412;27;20271;-64
2022/05/09 11:00:47;;;;;;;3.40;3.20;;;;;;;27.00;31.29;100049.88;5135129;27;20190;-64
2022/05/09 11:03:26;;;;;;;5.50;3.00;;;;;;;26.97;31.87;100061.34;5134862;27;20182;-65
2022/05/09 11:06:13;;;;;;;5.03;3.20;;;;;;;27.10;30.10;100056.03;5150940;27;20218;-65
2022/05/09 11:09:06;;;;;;;3.67;3.20;;;;;;;27.01;31.46;100051.50;5156490;27;20588;-65
2022/05/09 11:11:46;;;;;;;3.47;3.23;;;;;;;26.91;32.53;100048.88;5155871;27;20242;-65
2022/05/09 11:14:23;;;;;;;3.53;3.33;;;;;;;26.75;32.84;100037.31;5155225;27;20646;-64
2022/05/09 11:17:13;;;;;;;8.20;3.10;;;;;;;26.73;32.82;100035.97;5155476;27;20182;-64
2022/05/09 11:20:03;;;;;;;3.33;3.10;;;;;;;25.89;32.62;100038.28;5155475;27;20643;-67
2022/05/09 11:22:35;;;;;;;11.73;3.33;;;;;;;25.46;34.47;100034.44;5135118;27;20273;-66
2022/05/09 11:25:28;;;;;;;2.73;2.53;;;;;;;25.17;34.77;100025.31;5134823;27;20667;-67
2022/05/09 11:28:08;;;;;;;4.97;2.93;;;;;;;25.50;34.25;100029.25;5127307;27;20179;-67
2022/05/09 11:30:40;;;;;;;6.13;2.60;;;;;;;25.55;35.56;100026.53;5114344;28;20606;-67
2022/05/09 11:33:31;;;;;;;4.17;2.80;;;;;;;25.67;34.81;100029.69;5114075;28;20602;-66
2022/05/09 11:36:05;;;;;;;2.70;2.60;;;;;;;25.55;33.03;100026.53;5113610;28;20191;-66
2022/05/09 11:38:48;;;;;;;3.33;3.00;;;;;;;25.73;32.64;100029.41;5113630;27;20213;-67
2022/05/09 11:41:28;;;;;;;3.67;2.80;;;;;;;25.89;32.78;100019.22;5113720;28;20552;-66
2022/05/09 11:44:20;;;;;;;2.97;2.77;;;;;;;26.20;32.34;100020.63;5114304;28;20197;-67
2022/05/09 11:47:12;;;;;;;3.00;2.70;;;;;;;26.28;30.97;100014.56;5108450;28;20195;-65
2022/05/09 11:50:03;;;;;;;4.47;2.50;;;;;;;26.24;31.03;100024.41;5113628;28;20260;-67